sensor_id;sensor_type;location;lat;lon;timestamp;P1;durP1;ratioP1;P2;durP2;ratioP2
8948;SDS011;4509;51.522;9.910;2022-09-12T00:00:50;1.40;;;1.40;;
8948;SDS011;4509;51.522;9.910;2022-09-12T00:03:17;1.13;;;1.13;;
8948;SDS011;4509;51.522;9.910;2022-09-12T00:05:44;1.20;;;1.20;;
8948;SDS011;4509;51.522;9.910;2022-09-12T00:08:12;1.10;;;1.10;;
8948;SDS011;4509;51.522;9.910;2022-09-12T00:10:40;1.10;;;1.10;;
8948;SDS011;4509;51.522;9.910;2022-09-12T00:13:09;1.30;;;1.30;;
8948;SDS011;4509;51.522;9.910;2022-09-12T00:15:36;1.33;;;1.33;;
8948;SDS011;4509;51.522;9.910;2022-09-12T00:18:04;1.13;;;1.13;;
8948;SDS011;4509;51.522;9.910;2022-09-12T00:20:31;1.20;;;1.20;;
8948;SDS011;4509;51.522;9.910;2022-09-12T00:22:58;1.30;;;1.30;;
8948;SDS011;4509;51.522;9.910;2022-09-12T00:25:25;1.30;;;1.30;;
8948;SDS011;4509;51.522;9.910;2022-09-12T00:27:51;1.20;;;1.20;;
8948;SDS011;4509;51.522;9.910;2022-09-12T00:30:19;1.27;;;1.27;;
8948;SDS011;4509;51.522;9.910;2022-09-12T00:32:46;1.10;;;1.10;;
8948;SDS011;4509;51.522;9.910;2022-09-12T00:35:13;1.30;;;1.30;;
8948;SDS011;4509;51.522;9.910;2022-09-12T00:37:40;1.17;;;1.17;;
8948;SDS011;4509;51.522;9.910;2022-09-12T00:40:06;1.17;;;1.17;;
8948;SDS011;4509;51.522;9.910;2022-09-12T00:42:33;1.20;;;1.20;;
8948;SDS011;4509;51.522;9.910;2022-09-12T00:45:00;1.13;;;1.13;;
8948;SDS011;4509;51.522;9.910;2022-09-12T00:47:28;1.20;;;1.20;;
8948;SDS011;4509;51.522;9.910;2022-09-12T00:49:58;1.10;;;1.10;;
8948;SDS011;4509;51.522;9.910;2022-09-12T00:52:30;1.10;;;1.10;;
8948;SDS011;4509;51.522;9.910;2022-09-12T00:55:02;1.10;;;1.10;;
8948;SDS011;4509;51.522;9.910;2022-09-12T00:57:34;1.10;;;1.10;;
8948;SDS011;4509;51.522;9.910;2022-09-12T01:00:05;1.30;;;1.30;;
8948;SDS011;4509;51.522;9.910;2022-09-12T01:02:38;1.10;;;1.10;;
8948;SDS011;4509;51.522;9.910;2022-09-12T01:05:06;1.00;;;1.00;;
8948;SDS011;4509;51.522;9.910;2022-09-12T01:07:34;1.20;;;1.20;;
8948;SDS011;4509;51.522;9.910;2022-09-12T01:10:05;1.17;;;1.17;;
8948;SDS011;4509;51.522;9.910;2022-09-12T01:12:33;1.10;;;1.10;;
8948;SDS011;4509;51.522;9.910;2022-09-12T01:15:04;1.10;;;1.10;;
8948;SDS011;4509;51.522;9.910;2022-09-12T01:17:33;1.20;;;1.20;;
8948;SDS011;4509;51.522;9.910;2022-09-12T01:20:26;1.10;;;1.10;;
8948;SDS011;4509;51.522;9.910;2022-09-12T01:23:16;1.20;;;1.20;;
8948;SDS011;4509;51.522;9.910;2022-09-12T01:26:04;1.13;;;1.13;;
8948;SDS011;4509;51.522;9.910;2022-09-12T01:28:48;1.10;;;1.10;;
8948;SDS011;4509;51.522;9.910;2022-09-12T01:31:28;1.10;;;1.10;;
8948;SDS011;4509;51.522;9.910;2022-09-12T01:34:08;1.10;;;1.10;;
8948;SDS011;4509;51.522;9.910;2022-09-12T01:36:43;1.10;;;1.10;;
8948;SDS011;4509;51.522;9.910;2022-09-12T01:39:23;1.17;;;1.17;;
8948;SDS011;4509;51.522;9.910;2022-09-12T01:41:55;1.20;;;1.20;;
8948;SDS011;4509;51.522;9.910;2022-09-12T01:44:35;0.93;;;0.93;;
8948;SDS011;4509;51.522;9.910;2022-09-12T01:47:07;1.13;;;1.13;;
8948;SDS011;4509;51.522;9.910;2022-09-12T01:49:37;1.17;;;1.17;;
8948;SDS011;4509;51.522;9.910;2022-09-12T01:52:09;1.03;;;1.03;;
8948;SDS011;4509;51.522;9.910;2022-09-12T01:54:42;1.10;;;1.10;;
8948;SDS011;4509;51.522;9.910;2022-09-12T01:57:14;1.10;;;1.10;;
8948;SDS011;4509;51.522;9.910;2022-09-12T01:59:46;1.10;;;1.10;;
8948;SDS011;4509;51.522;9.910;2022-09-12T02:02:19;1.20;;;1.20;;
8948;SDS011;4509;51.522;9.910;2022-09-12T02:04:51;1.10;;;1.10;;
8948;SDS011;4509;51.522;9.910;2022-09-12T02:07:24;1.10;;;1.10;;
8948;SDS011;4509;51.522;9.910;2022-09-12T02:09:56;1.03;;;1.03;;
8948;SDS011;4509;51.522;9.910;2022-09-12T02:12:28;1.10;;;1.10;;
8948;SDS011;4509;51.522;9.910;2022-09-12T02:15:03;1.00;;;1.00;;
8948;SDS011;4509;51.522;9.910;2022-09-12T02:17:35;1.00;;;1.00;;
8948;SDS011;4509;51.522;9.910;2022-09-12T02:20:06;1.00;;;1.00;;
8948;SDS011;4509;51.522;9.910;2022-09-12T02:22:38;1.07;;;1.07;;
8948;SDS011;4509;51.522;9.910;2022-09-12T02:25:08;1.10;;;1.10;;
8948;SDS011;4509;51.522;9.910;2022-09-12T02:42:37;1.00;;;1.00;;
8948;SDS011;4509;51.522;9.910;2022-09-12T02:45:04;1.00;;;1.00;;
8948;SDS011;4509;51.522;9.910;2022-09-12T02:47:33;0.90;;;0.90;;
8948;SDS011;4509;51.522;9.910;2022-09-12T02:50:05;1.00;;;1.00;;
8948;SDS011;4509;51.522;9.910;2022-09-12T02:52:33;1.00;;;1.00;;
8948;SDS011;4509;51.522;9.910;2022-09-12T02:55:01;0.90;;;0.90;;
8948;SDS011;4509;51.522;9.910;2022-09-12T02:57:30;0.90;;;0.90;;
8948;SDS011;4509;51.522;9.910;2022-09-12T02:59:58;0.93;;;0.93;;
8948;SDS011;4509;51.522;9.910;2022-09-12T03:02:29;0.90;;;0.90;;
8948;SDS011;4509;51.522;9.910;2022-09-12T03:05:16;0.90;;;0.90;;
8948;SDS011;4509;51.522;9.910;2022-09-12T03:07:58;1.00;;;1.00;;
8948;SDS011;4509;51.522;9.910;2022-09-12T03:10:50;0.90;;;0.90;;
8948;SDS011;4509;51.522;9.910;2022-09-12T03:13:32;1.00;;;1.00;;
8948;SDS011;4509;51.522;9.910;2022-09-12T03:16:11;1.00;;;1.00;;
8948;SDS011;4509;51.522;9.910;2022-09-12T03:18:49;0.90;;;0.90;;
8948;SDS011;4509;51.522;9.910;2022-09-12T03:21:25;0.90;;;0.90;;
8948;SDS011;4509;51.522;9.910;2022-09-12T03:24:04;1.00;;;1.00;;
8948;SDS011;4509;51.522;9.910;2022-09-12T03:26:39;0.90;;;0.90;;
8948;SDS011;4509;51.522;9.910;2022-09-12T03:29:09;1.00;;;1.00;;
8948;SDS011;4509;51.522;9.910;2022-09-12T03:31:46;0.90;;;0.90;;
8948;SDS011;4509;51.522;9.910;2022-09-12T03:34:14;0.93;;;0.93;;
8948;SDS011;4509;51.522;9.910;2022-09-12T03:36:42;1.00;;;1.00;;
8948;SDS011;4509;51.522;9.910;2022-09-12T03:39:08;0.90;;;0.90;;
8948;SDS011;4509;51.522;9.910;2022-09-12T03:41:35;1.00;;;1.00;;
8948;SDS011;4509;51.522;9.910;2022-09-12T03:44:02;1.10;;;1.10;;
8948;SDS011;4509;51.522;9.910;2022-09-12T03:46:28;1.10;;;1.10;;
8948;SDS011;4509;51.522;9.910;2022-09-12T03:48:55;1.00;;;1.00;;
8948;SDS011;4509;51.522;9.910;2022-09-12T03:51:22;1.00;;;1.00;;
8948;SDS011;4509;51.522;9.910;2022-09-12T03:53:50;1.00;;;1.00;;
8948;SDS011;4509;51.522;9.910;2022-09-12T03:56:16;1.00;;;1.00;;
8948;SDS011;4509;51.522;9.910;2022-09-12T03:58:43;0.90;;;0.90;;
8948;SDS011;4509;51.522;9.910;2022-09-12T04:01:11;0.97;;;0.97;;
8948;SDS011;4509;51.522;9.910;2022-09-12T04:03:39;1.00;;;1.00;;
8948;SDS011;4509;51.522;9.910;2022-09-12T04:06:08;1.00;;;1.00;;
8948;SDS011;4509;51.522;9.910;2022-09-12T04:08:36;1.00;;;1.00;;
8948;SDS011;4509;51.522;9.910;2022-09-12T04:11:05;0.93;;;0.93;;
8948;SDS011;4509;51.522;9.910;2022-09-12T04:13:33;1.00;;;1.00;;
8948;SDS011;4509;51.522;9.910;2022-09-12T04:16:00;1.10;;;1.10;;
8948;SDS011;4509;51.522;9.910;2022-09-12T04:18:28;1.10;;;1.10;;
8948;SDS011;4509;51.522;9.910;2022-09-12T04:20:55;1.00;;;1.00;;
8948;SDS011;4509;51.522;9.910;2022-09-12T04:23:22;1.10;;;1.10;;
8948;SDS011;4509;51.522;9.910;2022-09-12T04:25:53;1.03;;;1.03;;
8948;SDS011;4509;51.522;9.910;2022-09-12T04:28:21;1.00;;;1.00;;
8948;SDS011;4509;51.522;9.910;2022-09-12T04:30:48;1.00;;;1.00;;
8948;SDS011;4509;51.522;9.910;2022-09-12T04:33:15;1.20;;;1.20;;
8948;SDS011;4509;51.522;9.910;2022-09-12T04:35:42;1.10;;;1.10;;
8948;SDS011;4509;51.522;9.910;2022-09-12T04:38:09;1.17;;;1.17;;
8948;SDS011;4509;51.522;9.910;2022-09-12T04:40:36;1.10;;;1.10;;
8948;SDS011;4509;51.522;9.910;2022-09-12T04:43:03;1.00;;;1.00;;
8948;SDS011;4509;51.522;9.910;2022-09-12T04:45:32;1.80;;;1.60;;
8948;SDS011;4509;51.522;9.910;2022-09-12T04:47:58;1.60;;;1.50;;
8948;SDS011;4509;51.522;9.910;2022-09-12T04:50:25;1.20;;;1.20;;
8948;SDS011;4509;51.522;9.910;2022-09-12T04:52:52;1.20;;;1.20;;
8948;SDS011;4509;51.522;9.910;2022-09-12T04:55:22;1.40;;;1.40;;
8948;SDS011;4509;51.522;9.910;2022-09-12T04:57:50;1.40;;;1.40;;
8948;SDS011;4509;51.522;9.910;2022-09-12T05:00:17;1.60;;;1.50;;
8948;SDS011;4509;51.522;9.910;2022-09-12T05:02:46;1.10;;;1.10;;
8948;SDS011;4509;51.522;9.910;2022-09-12T05:05:12;1.50;;;1.40;;
8948;SDS011;4509;51.522;9.910;2022-09-12T05:07:39;1.20;;;1.20;;
8948;SDS011;4509;51.522;9.910;2022-09-12T05:10:06;1.30;;;1.30;;
8948;SDS011;4509;51.522;9.910;2022-09-12T05:12:33;1.50;;;1.50;;
8948;SDS011;4509;51.522;9.910;2022-09-12T05:15:01;1.50;;;1.40;;
8948;SDS011;4509;51.522;9.910;2022-09-12T05:17:28;1.40;;;1.40;;
8948;SDS011;4509;51.522;9.910;2022-09-12T05:19:56;1.37;;;1.30;;
8948;SDS011;4509;51.522;9.910;2022-09-12T05:22:23;1.30;;;1.30;;
8948;SDS011;4509;51.522;9.910;2022-09-12T05:24:50;1.40;;;1.30;;
8948;SDS011;4509;51.522;9.910;2022-09-12T05:27:16;1.37;;;1.33;;
8948;SDS011;4509;51.522;9.910;2022-09-12T05:29:44;1.13;;;1.13;;
8948;SDS011;4509;51.522;9.910;2022-09-12T05:32:10;1.20;;;1.20;;
8948;SDS011;4509;51.522;9.910;2022-09-12T05:34:37;1.10;;;1.10;;
8948;SDS011;4509;51.522;9.910;2022-09-12T05:37:05;1.07;;;1.07;;
8948;SDS011;4509;51.522;9.910;2022-09-12T05:39:32;1.10;;;1.10;;
8948;SDS011;4509;51.522;9.910;2022-09-12T05:41:59;1.20;;;1.20;;
8948;SDS011;4509;51.522;9.910;2022-09-12T05:44:25;1.10;;;1.10;;
8948;SDS011;4509;51.522;9.910;2022-09-12T05:46:52;1.40;;;1.40;;
8948;SDS011;4509;51.522;9.910;2022-09-12T05:49:19;1.30;;;1.30;;
8948;SDS011;4509;51.522;9.910;2022-09-12T05:51:46;1.33;;;1.30;;
8948;SDS011;4509;51.522;9.910;2022-09-12T05:54:14;1.27;;;1.27;;
8948;SDS011;4509;51.522;9.910;2022-09-12T05:56:43;1.33;;;1.33;;
8948;SDS011;4509;51.522;9.910;2022-09-12T05:59:11;1.20;;;1.20;;
8948;SDS011;4509;51.522;9.910;2022-09-12T06:01:39;1.20;;;1.20;;
8948;SDS011;4509;51.522;9.910;2022-09-12T06:04:06;1.20;;;1.20;;
8948;SDS011;4509;51.522;9.910;2022-09-12T06:06:34;1.30;;;1.30;;
8948;SDS011;4509;51.522;9.910;2022-09-12T06:09:03;1.20;;;1.20;;
8948;SDS011;4509;51.522;9.910;2022-09-12T06:11:32;1.20;;;1.20;;
8948;SDS011;4509;51.522;9.910;2022-09-12T06:14:01;1.20;;;1.20;;
8948;SDS011;4509;51.522;9.910;2022-09-12T06:16:29;1.30;;;1.30;;
8948;SDS011;4509;51.522;9.910;2022-09-12T06:18:57;1.20;;;1.20;;
8948;SDS011;4509;51.522;9.910;2022-09-12T06:21:25;1.30;;;1.30;;
8948;SDS011;4509;51.522;9.910;2022-09-12T06:23:52;1.10;;;1.10;;
8948;SDS011;4509;51.522;9.910;2022-09-12T06:26:20;1.30;;;1.30;;
8948;SDS011;4509;51.522;9.910;2022-09-12T06:28:49;1.40;;;1.40;;
8948;SDS011;4509;51.522;9.910;2022-09-12T06:31:16;1.30;;;1.30;;
8948;SDS011;4509;51.522;9.910;2022-09-12T06:33:45;1.30;;;1.30;;
8948;SDS011;4509;51.522;9.910;2022-09-12T06:36:14;1.23;;;1.23;;
8948;SDS011;4509;51.522;9.910;2022-09-12T06:38:42;1.33;;;1.33;;
8948;SDS011;4509;51.522;9.910;2022-09-12T06:41:10;1.30;;;1.30;;
8948;SDS011;4509;51.522;9.910;2022-09-12T06:43:38;1.20;;;1.20;;
8948;SDS011;4509;51.522;9.910;2022-09-12T06:46:06;1.30;;;1.30;;
8948;SDS011;4509;51.522;9.910;2022-09-12T06:48:33;1.30;;;1.30;;
8948;SDS011;4509;51.522;9.910;2022-09-12T06:51:01;1.30;;;1.30;;
8948;SDS011;4509;51.522;9.910;2022-09-12T06:53:30;1.40;;;1.40;;
8948;SDS011;4509;51.522;9.910;2022-09-12T06:55:58;1.33;;;1.33;;
8948;SDS011;4509;51.522;9.910;2022-09-12T06:58:27;1.47;;;1.47;;
8948;SDS011;4509;51.522;9.910;2022-09-12T07:00:59;1.37;;;1.37;;
8948;SDS011;4509;51.522;9.910;2022-09-12T07:03:28;1.30;;;1.30;;
8948;SDS011;4509;51.522;9.910;2022-09-12T07:05:55;1.40;;;1.40;;
8948;SDS011;4509;51.522;9.910;2022-09-12T07:08:22;1.50;;;1.50;;
8948;SDS011;4509;51.522;9.910;2022-09-12T07:10:49;1.33;;;1.33;;
8948;SDS011;4509;51.522;9.910;2022-09-12T07:13:15;1.40;;;1.40;;
8948;SDS011;4509;51.522;9.910;2022-09-12T07:15:42;1.53;;;1.53;;
8948;SDS011;4509;51.522;9.910;2022-09-12T07:18:09;1.57;;;1.57;;
8948;SDS011;4509;51.522;9.910;2022-09-12T07:20:37;1.50;;;1.50;;
8948;SDS011;4509;51.522;9.910;2022-09-12T07:23:04;1.60;;;1.60;;
8948;SDS011;4509;51.522;9.910;2022-09-12T07:25:30;1.70;;;1.70;;
8948;SDS011;4509;51.522;9.910;2022-09-12T07:27:57;1.73;;;1.73;;
8948;SDS011;4509;51.522;9.910;2022-09-12T07:30:24;1.50;;;1.50;;
8948;SDS011;4509;51.522;9.910;2022-09-12T07:32:51;1.57;;;1.57;;
8948;SDS011;4509;51.522;9.910;2022-09-12T07:35:17;1.50;;;1.50;;
8948;SDS011;4509;51.522;9.910;2022-09-12T07:37:45;1.60;;;1.60;;
8948;SDS011;4509;51.522;9.910;2022-09-12T07:40:12;1.67;;;1.63;;
8948;SDS011;4509;51.522;9.910;2022-09-12T07:42:39;1.67;;;1.67;;
8948;SDS011;4509;51.522;9.910;2022-09-12T07:45:06;1.60;;;1.60;;
8948;SDS011;4509;51.522;9.910;2022-09-12T07:47:33;1.60;;;1.60;;
8948;SDS011;4509;51.522;9.910;2022-09-12T07:49:59;1.50;;;1.50;;
8948;SDS011;4509;51.522;9.910;2022-09-12T07:52:26;1.67;;;1.67;;
8948;SDS011;4509;51.522;9.910;2022-09-12T07:54:54;1.60;;;1.60;;
8948;SDS011;4509;51.522;9.910;2022-09-12T07:57:21;1.50;;;1.50;;
8948;SDS011;4509;51.522;9.910;2022-09-12T07:59:47;1.30;;;1.30;;
8948;SDS011;4509;51.522;9.910;2022-09-12T08:02:14;1.47;;;1.47;;
8948;SDS011;4509;51.522;9.910;2022-09-12T08:04:41;1.40;;;1.40;;
8948;SDS011;4509;51.522;9.910;2022-09-12T08:07:08;1.30;;;1.30;;
8948;SDS011;4509;51.522;9.910;2022-09-12T08:09:35;1.23;;;1.23;;
8948;SDS011;4509;51.522;9.910;2022-09-12T08:12:03;1.40;;;1.40;;
8948;SDS011;4509;51.522;9.910;2022-09-12T08:14:30;1.43;;;1.43;;
8948;SDS011;4509;51.522;9.910;2022-09-12T08:16:56;1.50;;;1.50;;
8948;SDS011;4509;51.522;9.910;2022-09-12T08:19:23;1.50;;;1.50;;
8948;SDS011;4509;51.522;9.910;2022-09-12T08:21:49;1.40;;;1.40;;
8948;SDS011;4509;51.522;9.910;2022-09-12T08:24:16;1.43;;;1.43;;
8948;SDS011;4509;51.522;9.910;2022-09-12T08:26:43;1.43;;;1.43;;
8948;SDS011;4509;51.522;9.910;2022-09-12T08:29:11;1.50;;;1.50;;
8948;SDS011;4509;51.522;9.910;2022-09-12T08:31:38;1.60;;;1.60;;
8948;SDS011;4509;51.522;9.910;2022-09-12T08:34:06;1.70;;;1.70;;
8948;SDS011;4509;51.522;9.910;2022-09-12T08:36:33;1.50;;;1.50;;
8948;SDS011;4509;51.522;9.910;2022-09-12T08:39:01;1.40;;;1.40;;
8948;SDS011;4509;51.522;9.910;2022-09-12T08:41:30;1.60;;;1.60;;
8948;SDS011;4509;51.522;9.910;2022-09-12T08:44:06;1.43;;;1.43;;
8948;SDS011;4509;51.522;9.910;2022-09-12T08:46:46;1.43;;;1.43;;
8948;SDS011;4509;51.522;9.910;2022-09-12T08:49:24;1.40;;;1.40;;
8948;SDS011;4509;51.522;9.910;2022-09-12T08:51:55;1.37;;;1.37;;
8948;SDS011;4509;51.522;9.910;2022-09-12T08:54:25;1.50;;;1.50;;
8948;SDS011;4509;51.522;9.910;2022-09-12T08:56:55;1.53;;;1.53;;
8948;SDS011;4509;51.522;9.910;2022-09-12T08:59:28;1.47;;;1.47;;
8948;SDS011;4509;51.522;9.910;2022-09-12T09:02:00;1.50;;;1.50;;
8948;SDS011;4509;51.522;9.910;2022-09-12T09:04:32;1.80;;;1.80;;
8948;SDS011;4509;51.522;9.910;2022-09-12T09:07:15;1.77;;;1.77;;
8948;SDS011;4509;51.522;9.910;2022-09-12T09:09:57;2.20;;;2.10;;
8948;SDS011;4509;51.522;9.910;2022-09-12T09:12:35;1.90;;;1.90;;
8948;SDS011;4509;51.522;9.910;2022-09-12T09:15:20;2.00;;;2.00;;
8948;SDS011;4509;51.522;9.910;2022-09-12T09:18:08;1.80;;;1.80;;
8948;SDS011;4509;51.522;9.910;2022-09-12T09:20:43;1.80;;;1.80;;
8948;SDS011;4509;51.522;9.910;2022-09-12T09:23:14;1.80;;;1.80;;
8948;SDS011;4509;51.522;9.910;2022-09-12T09:25:47;1.90;;;1.90;;
8948;SDS011;4509;51.522;9.910;2022-09-12T09:28:19;1.70;;;1.70;;
8948;SDS011;4509;51.522;9.910;2022-09-12T09:30:51;1.50;;;1.50;;
8948;SDS011;4509;51.522;9.910;2022-09-12T09:33:20;1.40;;;1.40;;
8948;SDS011;4509;51.522;9.910;2022-09-12T09:35:51;1.57;;;1.57;;
8948;SDS011;4509;51.522;9.910;2022-09-12T09:38:22;1.60;;;1.60;;
8948;SDS011;4509;51.522;9.910;2022-09-12T09:40:55;1.70;;;1.70;;
8948;SDS011;4509;51.522;9.910;2022-09-12T09:43:32;1.80;;;1.80;;
8948;SDS011;4509;51.522;9.910;2022-09-12T09:46:00;2.03;;;2.03;;
8948;SDS011;4509;51.522;9.910;2022-09-12T09:48:28;2.67;;;2.57;;
8948;SDS011;4509;51.522;9.910;2022-09-12T09:50:58;2.83;;;2.73;;
8948;SDS011;4509;51.522;9.910;2022-09-12T09:53:28;3.13;;;3.03;;
8948;SDS011;4509;51.522;9.910;2022-09-12T09:56:02;3.45;;;3.35;;
8948;SDS011;4509;51.522;9.910;2022-09-12T09:58:33;3.70;;;3.60;;
8948;SDS011;4509;51.522;9.910;2022-09-12T10:01:02;3.63;;;3.53;;
8948;SDS011;4509;51.522;9.910;2022-09-12T10:03:31;4.22;;;4.10;;
8948;SDS011;4509;51.522;9.910;2022-09-12T10:06:00;4.00;;;3.90;;
8948;SDS011;4509;51.522;9.910;2022-09-12T10:08:28;4.00;;;3.90;;
8948;SDS011;4509;51.522;9.910;2022-09-12T10:10:58;4.05;;;3.95;;
8948;SDS011;4509;51.522;9.910;2022-09-12T10:13:29;4.03;;;3.92;;
8948;SDS011;4509;51.522;9.910;2022-09-12T10:16:00;4.38;;;4.20;;
8948;SDS011;4509;51.522;9.910;2022-09-12T10:18:37;4.07;;;3.97;;
8948;SDS011;4509;51.522;9.910;2022-09-12T10:21:16;3.42;;;3.33;;
8948;SDS011;4509;51.522;9.910;2022-09-12T10:23:50;2.95;;;2.85;;
8948;SDS011;4509;51.522;9.910;2022-09-12T10:26:24;2.80;;;2.70;;
8948;SDS011;4509;51.522;9.910;2022-09-12T10:28:53;3.22;;;3.13;;
8948;SDS011;4509;51.522;9.910;2022-09-12T10:31:26;2.90;;;2.80;;
8948;SDS011;4509;51.522;9.910;2022-09-12T10:33:54;2.83;;;2.72;;
8948;SDS011;4509;51.522;9.910;2022-09-12T10:36:24;2.38;;;2.28;;
8948;SDS011;4509;51.522;9.910;2022-09-12T10:38:51;2.47;;;2.38;;
8948;SDS011;4509;51.522;9.910;2022-09-12T10:41:20;2.33;;;2.22;;
8948;SDS011;4509;51.522;9.910;2022-09-12T10:43:47;2.20;;;2.10;;
8948;SDS011;4509;51.522;9.910;2022-09-12T10:46:28;2.30;;;2.20;;
8948;SDS011;4509;51.522;9.910;2022-09-12T10:49:13;2.08;;;2.08;;
8948;SDS011;4509;51.522;9.910;2022-09-12T10:51:51;2.00;;;2.00;;
8948;SDS011;4509;51.522;9.910;2022-09-12T10:54:20;1.90;;;1.90;;
8948;SDS011;4509;51.522;9.910;2022-09-12T10:56:51;1.80;;;1.80;;
8948;SDS011;4509;51.522;9.910;2022-09-12T10:59:40;1.75;;;1.75;;
8948;SDS011;4509;51.522;9.910;2022-09-12T11:02:29;1.80;;;1.80;;
8948;SDS011;4509;51.522;9.910;2022-09-12T11:05:05;2.20;;;2.10;;
8948;SDS011;4509;51.522;9.910;2022-09-12T11:07:40;1.92;;;1.92;;
8948;SDS011;4509;51.522;9.910;2022-09-12T11:10:17;1.70;;;1.70;;
8948;SDS011;4509;51.522;9.910;2022-09-12T11:12:53;1.85;;;1.85;;
8948;SDS011;4509;51.522;9.910;2022-09-12T11:15:34;2.13;;;2.05;;
8948;SDS011;4509;51.522;9.910;2022-09-12T11:18:13;1.98;;;1.98;;
8948;SDS011;4509;51.522;9.910;2022-09-12T11:21:01;2.22;;;2.15;;
8948;SDS011;4509;51.522;9.910;2022-09-12T11:23:50;2.30;;;2.20;;
8948;SDS011;4509;51.522;9.910;2022-09-12T11:26:33;2.65;;;2.55;;
8948;SDS011;4509;51.522;9.910;2022-09-12T11:29:13;2.70;;;2.60;;
8948;SDS011;4509;51.522;9.910;2022-09-12T11:31:58;2.80;;;2.70;;
8948;SDS011;4509;51.522;9.910;2022-09-12T11:34:39;2.53;;;2.42;;
8948;SDS011;4509;51.522;9.910;2022-09-12T11:37:24;2.55;;;2.45;;
8948;SDS011;4509;51.522;9.910;2022-09-12T11:40:04;2.70;;;2.60;;
8948;SDS011;4509;51.522;9.910;2022-09-12T11:42:40;2.83;;;2.72;;
8948;SDS011;4509;51.522;9.910;2022-09-12T11:45:11;2.75;;;2.65;;
8948;SDS011;4509;51.522;9.910;2022-09-12T11:47:41;2.92;;;2.83;;
8948;SDS011;4509;51.522;9.910;2022-09-12T11:50:18;3.05;;;2.95;;
8948;SDS011;4509;51.522;9.910;2022-09-12T11:52:50;2.42;;;2.33;;
8948;SDS011;4509;51.522;9.910;2022-09-12T11:55:18;2.90;;;2.80;;
8948;SDS011;4509;51.522;9.910;2022-09-12T11:57:49;2.97;;;2.88;;
8948;SDS011;4509;51.522;9.910;2022-09-12T12:00:19;2.95;;;2.85;;
8948;SDS011;4509;51.522;9.910;2022-09-12T12:02:49;3.00;;;2.90;;
8948;SDS011;4509;51.522;9.910;2022-09-12T12:05:27;2.85;;;2.75;;
8948;SDS011;4509;51.522;9.910;2022-09-12T12:07:57;2.65;;;2.55;;
8948;SDS011;4509;51.522;9.910;2022-09-12T12:10:30;2.67;;;2.58;;
8948;SDS011;4509;51.522;9.910;2022-09-12T12:13:01;2.70;;;2.60;;
8948;SDS011;4509;51.522;9.910;2022-09-12T12:15:31;2.78;;;2.67;;
8948;SDS011;4509;51.522;9.910;2022-09-12T12:18:01;3.08;;;2.97;;
8948;SDS011;4509;51.522;9.910;2022-09-12T12:20:32;3.25;;;3.15;;
8948;SDS011;4509;51.522;9.910;2022-09-12T12:23:00;2.92;;;2.83;;
8948;SDS011;4509;51.522;9.910;2022-09-12T12:25:37;3.55;;;3.45;;
8948;SDS011;4509;51.522;9.910;2022-09-12T12:28:06;2.88;;;2.78;;
8948;SDS011;4509;51.522;9.910;2022-09-12T12:36:31;3.03;;;2.92;;
8948;SDS011;4509;51.522;9.910;2022-09-12T12:42:03;2.92;;;2.83;;
8948;SDS011;4509;51.522;9.910;2022-09-12T12:44:46;3.45;;;3.25;;
8948;SDS011;4509;51.522;9.910;2022-09-12T12:47:15;3.33;;;3.22;;
8948;SDS011;4509;51.522;9.910;2022-09-12T12:49:48;3.00;;;2.90;;
8948;SDS011;4509;51.522;9.910;2022-09-12T12:52:18;3.10;;;3.00;;
8948;SDS011;4509;51.522;9.910;2022-09-12T12:54:49;3.05;;;2.95;;
8948;SDS011;4509;51.522;9.910;2022-09-12T12:57:27;3.55;;;3.45;;
8948;SDS011;4509;51.522;9.910;2022-09-12T13:00:05;3.30;;;3.20;;
8948;SDS011;4509;51.522;9.910;2022-09-12T13:02:34;3.00;;;2.90;;
8948;SDS011;4509;51.522;9.910;2022-09-12T13:05:04;3.03;;;2.92;;
8948;SDS011;4509;51.522;9.910;2022-09-12T13:07:42;3.13;;;3.03;;
8948;SDS011;4509;51.522;9.910;2022-09-12T13:10:18;3.20;;;3.10;;
8948;SDS011;4509;51.522;9.910;2022-09-12T13:12:48;3.28;;;3.17;;
8948;SDS011;4509;51.522;9.910;2022-09-12T13:18:13;3.42;;;3.33;;
8948;SDS011;4509;51.522;9.910;2022-09-12T13:20:46;3.35;;;3.25;;
8948;SDS011;4509;51.522;9.910;2022-09-12T13:23:21;3.88;;;3.78;;
8948;SDS011;4509;51.522;9.910;2022-09-12T13:25:52;3.00;;;2.90;;
8948;SDS011;4509;51.522;9.910;2022-09-12T13:28:20;2.53;;;2.42;;
8948;SDS011;4509;51.522;9.910;2022-09-12T13:30:47;2.28;;;2.17;;
8948;SDS011;4509;51.522;9.910;2022-09-12T13:33:20;2.55;;;2.45;;
8948;SDS011;4509;51.522;9.910;2022-09-12T13:35:57;2.10;;;2.08;;
8948;SDS011;4509;51.522;9.910;2022-09-12T13:38:39;2.45;;;2.35;;
8948;SDS011;4509;51.522;9.910;2022-09-12T13:41:22;2.72;;;2.63;;
8948;SDS011;4509;51.522;9.910;2022-09-12T13:44:00;2.40;;;2.30;;
8948;SDS011;4509;51.522;9.910;2022-09-12T13:46:29;2.35;;;2.25;;
8948;SDS011;4509;51.522;9.910;2022-09-12T13:48:58;2.70;;;2.60;;
8948;SDS011;4509;51.522;9.910;2022-09-12T13:51:28;2.35;;;2.25;;
8948;SDS011;4509;51.522;9.910;2022-09-12T13:53:58;2.28;;;2.17;;
8948;SDS011;4509;51.522;9.910;2022-09-12T13:56:30;2.20;;;2.10;;
8948;SDS011;4509;51.522;9.910;2022-09-12T13:58:58;2.03;;;2.03;;
8948;SDS011;4509;51.522;9.910;2022-09-12T14:01:36;2.20;;;2.10;;
8948;SDS011;4509;51.522;9.910;2022-09-12T14:04:09;2.00;;;2.00;;
8948;SDS011;4509;51.522;9.910;2022-09-12T14:06:58;1.98;;;1.98;;
8948;SDS011;4509;51.522;9.910;2022-09-12T14:09:29;2.63;;;2.53;;
8948;SDS011;4509;51.522;9.910;2022-09-12T14:11:57;3.47;;;3.38;;
8948;SDS011;4509;51.522;9.910;2022-09-12T14:14:25;3.83;;;3.72;;
8948;SDS011;4509;51.522;9.910;2022-09-12T14:16:56;3.83;;;3.72;;
8948;SDS011;4509;51.522;9.910;2022-09-12T14:19:24;3.60;;;3.50;;
8948;SDS011;4509;51.522;9.910;2022-09-12T14:21:53;3.38;;;3.28;;
8948;SDS011;4509;51.522;9.910;2022-09-12T14:24:21;3.78;;;3.67;;
8948;SDS011;4509;51.522;9.910;2022-09-12T14:26:50;4.05;;;3.95;;
8948;SDS011;4509;51.522;9.910;2022-09-12T14:29:20;3.83;;;3.72;;
8948;SDS011;4509;51.522;9.910;2022-09-12T14:31:59;3.58;;;3.47;;
8948;SDS011;4509;51.522;9.910;2022-09-12T14:34:27;3.03;;;2.92;;
8948;SDS011;4509;51.522;9.910;2022-09-12T14:36:55;3.60;;;3.50;;
8948;SDS011;4509;51.522;9.910;2022-09-12T14:39:23;3.28;;;3.17;;
8948;SDS011;4509;51.522;9.910;2022-09-12T14:42:03;4.00;;;3.90;;
8948;SDS011;4509;51.522;9.910;2022-09-12T14:44:33;4.45;;;4.25;;
8948;SDS011;4509;51.522;9.910;2022-09-12T14:47:09;4.93;;;4.72;;
8948;SDS011;4509;51.522;9.910;2022-09-12T14:49:38;5.30;;;5.10;;
8948;SDS011;4509;51.522;9.910;2022-09-12T14:52:06;4.63;;;4.43;;
8948;SDS011;4509;51.522;9.910;2022-09-12T14:54:54;4.10;;;3.97;;
8948;SDS011;4509;51.522;9.910;2022-09-12T14:57:36;4.10;;;4.00;;
8948;SDS011;4509;51.522;9.910;2022-09-12T15:02:47;4.97;;;4.78;;
8948;SDS011;4509;51.522;9.910;2022-09-12T15:05:19;3.45;;;3.35;;
8948;SDS011;4509;51.522;9.910;2022-09-12T15:07:52;2.80;;;2.70;;
8948;SDS011;4509;51.522;9.910;2022-09-12T15:10:21;4.57;;;4.38;;
8948;SDS011;4509;51.522;9.910;2022-09-12T15:12:56;4.43;;;4.22;;
8948;SDS011;4509;51.522;9.910;2022-09-12T15:15:36;4.18;;;4.07;;
8948;SDS011;4509;51.522;9.910;2022-09-12T15:18:04;3.83;;;3.72;;
8948;SDS011;4509;51.522;9.910;2022-09-12T15:20:31;3.15;;;3.05;;
8948;SDS011;4509;51.522;9.910;2022-09-12T15:22:58;2.08;;;2.08;;
8948;SDS011;4509;51.522;9.910;2022-09-12T15:25:25;2.10;;;2.08;;
8948;SDS011;4509;51.522;9.910;2022-09-12T15:27:53;2.20;;;2.10;;
8948;SDS011;4509;51.522;9.910;2022-09-12T15:30:20;2.25;;;2.17;;
8948;SDS011;4509;51.522;9.910;2022-09-12T15:32:47;2.83;;;2.72;;
8948;SDS011;4509;51.522;9.910;2022-09-12T15:35:14;2.67;;;2.58;;
8948;SDS011;4509;51.522;9.910;2022-09-12T15:37:42;2.67;;;2.58;;
8948;SDS011;4509;51.522;9.910;2022-09-12T15:40:09;2.70;;;2.60;;
8948;SDS011;4509;51.522;9.910;2022-09-12T15:42:37;3.47;;;3.38;;
8948;SDS011;4509;51.522;9.910;2022-09-12T15:45:09;3.30;;;3.20;;
8948;SDS011;4509;51.522;9.910;2022-09-12T15:47:42;3.20;;;3.10;;
8948;SDS011;4509;51.522;9.910;2022-09-12T15:50:09;3.58;;;3.47;;
8948;SDS011;4509;51.522;9.910;2022-09-12T15:52:36;3.28;;;3.17;;
8948;SDS011;4509;51.522;9.910;2022-09-12T15:55:03;3.00;;;2.90;;
8948;SDS011;4509;51.522;9.910;2022-09-12T15:57:31;2.97;;;2.88;;
8948;SDS011;4509;51.522;9.910;2022-09-12T15:59:57;3.10;;;3.00;;
8948;SDS011;4509;51.522;9.910;2022-09-12T16:02:25;2.85;;;2.75;;
8948;SDS011;4509;51.522;9.910;2022-09-12T16:04:52;3.13;;;3.03;;
8948;SDS011;4509;51.522;9.910;2022-09-12T16:07:19;3.22;;;3.13;;